Duke Of Topsail — HQTU3 — position and weather

sailwx.info

Track history (hours):
 
Tides and Currents Weather Stations Pressure Air Temp Water Temp Dewpoint Dewpoint Depression Visibility Wind Speed Wind Dir Waves Ship Positions

Duke Of Topsail

Last reported at 2017-Oct-16 23:21 UTC. Time now 2017-Oct-22 17:48 UTC.
Position N 26°55' W 079°49'.

Length 72 m; draft 4 m.

Type: Cargo ship. MMSI: 334636000.

Date/timePositionNaut miles runAvg speedWind from/ knotsBaromVisibWave heightAir tempDewpointWater temp
2017-Oct-16 23:21N 26°55' W 079°49'513.2
2017-Oct-16 23:00N 26°52' W 079°53'712.9
2017-Oct-16 22:27N 26°48' W 079°59'4 0.4
2017-Oct-16 10:10N 26°46' W 080°03'0 2.1
2017-Oct-16 09:58N 26°46' W 080°03'4 6.9
2017-Oct-16 09:20N 26°48' W 079°58'2 6.2
2017-Oct-16 09:00N 26°49' W 079°56'3 6.1
2017-Oct-16 08:30N 26°51' W 079°54'  
2017-Oct-09 23:15N 26°56' W 079°47'312.5
2017-Oct-09 23:00N 26°54' W 079°50'812.6
2017-Oct-09 22:25N 26°50' W 079°56'611.9
2017-Oct-09 21:55N 26°46' W 080°01'2 0.8
2017-Oct-09 20:02N 26°46' W 080°03'0 0.0
2017-Oct-09 19:32N 26°46' W 080°03'0 0.0
2017-Oct-09 09:54N 26°46' W 080°03'3 7.8
2017-Oct-09 09:28N 26°47' W 079°59'3 5.9
2017-Oct-09 09:00N 26°49' W 079°57'3 5.4
2017-Oct-09 08:31N 26°51' W 079°54'3 5.8
2017-Oct-09 08:01N 26°53' W 079°52'  
Track history (hours):
 
Tides and Currents Weather Stations Pressure Air Temp Water Temp Dewpoint Dewpoint Depression Visibility Wind Speed Wind Dir Waves Ship Positions

Duke Of Topsail

Last reported at 2017-Oct-16 23:21 UTC. Time now 2017-Oct-22 17:48 UTC.
Position N 26°55' W 079°49'.

Length 72 m; draft 4 m.

Type: Cargo ship. MMSI: 334636000.

Date/timePositionNaut miles runAvg speedWind from/ knotsBaromVisibWave heightAir tempDewpointWater temp
2017-Oct-16 23:21N 26°55' W 079°49'513.2
2017-Oct-16 23:00N 26°52' W 079°53'712.9
2017-Oct-16 22:27N 26°48' W 079°59'4 0.4
2017-Oct-16 10:10N 26°46' W 080°03'0 2.1
2017-Oct-16 09:58N 26°46' W 080°03'4 6.9
2017-Oct-16 09:20N 26°48' W 079°58'2 6.2
2017-Oct-16 09:00N 26°49' W 079°56'3 6.1
2017-Oct-16 08:30N 26°51' W 079°54'  
2017-Oct-09 23:15N 26°56' W 079°47'312.5
2017-Oct-09 23:00N 26°54' W 079°50'812.6
2017-Oct-09 22:25N 26°50' W 079°56'611.9
2017-Oct-09 21:55N 26°46' W 080°01'2 0.8
2017-Oct-09 20:02N 26°46' W 080°03'0 0.0
2017-Oct-09 19:32N 26°46' W 080°03'0 0.0
2017-Oct-09 09:54N 26°46' W 080°03'3 7.8
2017-Oct-09 09:28N 26°47' W 079°59'3 5.9
2017-Oct-09 09:00N 26°49' W 079°57'3 5.4
2017-Oct-09 08:31N 26°51' W 079°54'3 5.8
2017-Oct-09 08:01N 26°53' W 079°52'  

Dump ship's entire track history